Terminal Aerodrome Forecast
Issued by NWS

Home | Current Version | Previous Version | Text Only | Print | Product List | Glossary Off
Versions: 1 2 3 4 5 6 7 8 9 10 11 12 13 14 15

000
FTUS43 KGRB 220520
TAFRHI
TAF
KRHI 220520Z 2206/2306 00000KT 3SM BR SKC
      TEMPO 2206/2208 1SM BR SCT002
     FM220800 VRB03KT 2SM BR SCT002
      TEMPO 2208/2212 1/2SM FG BKN002
     FM221400 22010KT P6SM SCT030
     FM221800 21013G19KT P6SM SCT045
     FM230200 20009KT P6SM VCSH BKN080 WS013/21040KT=

USA.gov is the U.S. government's official web portal to all federal, state and local government web resources and services.